sensor_id;sensor_type;location;lat;lon;timestamp;temperature;humidity
34542;DHT22;20784;51.332;12.410;2023-07-30T00:01:31;18.80;99.90
34542;DHT22;20784;51.332;12.410;2023-07-30T00:04:04;18.50;99.90
34542;DHT22;20784;51.332;12.410;2023-07-30T00:06:29;18.50;99.90
34542;DHT22;20784;51.332;12.410;2023-07-30T00:08:55;18.50;99.90
34542;DHT22;20784;51.332;12.410;2023-07-30T00:11:21;18.40;99.90
34542;DHT22;20784;51.332;12.410;2023-07-30T00:13:47;18.50;99.90
34542;DHT22;20784;51.332;12.410;2023-07-30T00:16:30;18.50;99.90
34542;DHT22;20784;51.332;12.410;2023-07-30T00:19:04;18.50;99.90
34542;DHT22;20784;51.332;12.410;2023-07-30T00:21:32;18.40;99.90
34542;DHT22;20784;51.332;12.410;2023-07-30T00:24:01;18.80;99.90
34542;DHT22;20784;51.332;12.410;2023-07-30T00:26:26;18.40;99.90
34542;DHT22;20784;51.332;12.410;2023-07-30T00:28:55;18.40;99.90
34542;DHT22;20784;51.332;12.410;2023-07-30T00:31:26;18.20;99.90
34542;DHT22;20784;51.332;12.410;2023-07-30T00:33:55;18.30;99.90
34542;DHT22;20784;51.332;12.410;2023-07-30T00:36:21;18.30;99.90
34542;DHT22;20784;51.332;12.410;2023-07-30T00:38:59;18.30;99.90
34542;DHT22;20784;51.332;12.410;2023-07-30T00:41:36;18.50;99.90
34542;DHT22;20784;51.332;12.410;2023-07-30T00:44:02;18.20;99.90
34542;DHT22;20784;51.332;12.410;2023-07-30T00:46:28;18.20;99.90
34542;DHT22;20784;51.332;12.410;2023-07-30T00:48:54;18.40;99.90
34542;DHT22;20784;51.332;12.410;2023-07-30T00:51:23;18.30;99.90
34542;DHT22;20784;51.332;12.410;2023-07-30T00:53:49;18.20;99.90
34542;DHT22;20784;51.332;12.410;2023-07-30T00:56:15;18.20;99.90
34542;DHT22;20784;51.332;12.410;2023-07-30T00:58:43;18.30;99.90
34542;DHT22;20784;51.332;12.410;2023-07-30T01:01:11;18.30;99.90
34542;DHT22;20784;51.332;12.410;2023-07-30T01:03:37;18.30;99.90
34542;DHT22;20784;51.332;12.410;2023-07-30T01:06:05;18.30;99.90
34542;DHT22;20784;51.332;12.410;2023-07-30T01:08:30;18.30;99.90
34542;DHT22;20784;51.332;12.410;2023-07-30T01:10:57;18.30;99.90
34542;DHT22;20784;51.332;12.410;2023-07-30T01:13:23;18.40;99.90
34542;DHT22;20784;51.332;12.410;2023-07-30T01:15:49;18.20;99.90
34542;DHT22;20784;51.332;12.410;2023-07-30T01:18:18;18.20;99.90
34542;DHT22;20784;51.332;12.410;2023-07-30T01:20:53;18.20;99.90
34542;DHT22;20784;51.332;12.410;2023-07-30T01:23:19;18.20;99.90
34542;DHT22;20784;51.332;12.410;2023-07-30T01:25:51;18.30;99.90
34542;DHT22;20784;51.332;12.410;2023-07-30T01:28:20;18.10;99.90
34542;DHT22;20784;51.332;12.410;2023-07-30T01:30:50;18.60;99.90
34542;DHT22;20784;51.332;12.410;2023-07-30T01:33:16;18.30;99.90
34542;DHT22;20784;51.332;12.410;2023-07-30T01:35:43;18.10;99.90
34542;DHT22;20784;51.332;12.410;2023-07-30T01:38:10;18.10;99.90
34542;DHT22;20784;51.332;12.410;2023-07-30T01:40:42;18.10;99.90
34542;DHT22;20784;51.332;12.410;2023-07-30T01:43:16;18.20;99.90
34542;DHT22;20784;51.332;12.410;2023-07-30T01:45:44;18.10;99.90
34542;DHT22;20784;51.332;12.410;2023-07-30T01:48:10;18.10;99.90
34542;DHT22;20784;51.332;12.410;2023-07-30T01:50:41;18.00;99.90
34542;DHT22;20784;51.332;12.410;2023-07-30T01:53:06;18.60;99.90
34542;DHT22;20784;51.332;12.410;2023-07-30T01:55:35;18.10;99.90
34542;DHT22;20784;51.332;12.410;2023-07-30T01:58:01;18.10;99.90
34542;DHT22;20784;51.332;12.410;2023-07-30T02:00:27;18.10;99.90
34542;DHT22;20784;51.332;12.410;2023-07-30T02:02:52;18.10;99.90
34542;DHT22;20784;51.332;12.410;2023-07-30T02:05:18;18.10;99.90
34542;DHT22;20784;51.332;12.410;2023-07-30T02:07:47;18.40;99.90
34542;DHT22;20784;51.332;12.410;2023-07-30T02:10:12;18.10;99.90
34542;DHT22;20784;51.332;12.410;2023-07-30T02:12:40;18.10;99.90
34542;DHT22;20784;51.332;12.410;2023-07-30T02:15:12;18.10;99.90
34542;DHT22;20784;51.332;12.410;2023-07-30T02:17:40;18.20;99.90
34542;DHT22;20784;51.332;12.410;2023-07-30T02:20:06;18.20;99.90
34542;DHT22;20784;51.332;12.410;2023-07-30T02:22:32;18.20;99.90
34542;DHT22;20784;51.332;12.410;2023-07-30T02:24:58;18.20;99.90
34542;DHT22;20784;51.332;12.410;2023-07-30T02:27:28;18.20;99.90
34542;DHT22;20784;51.332;12.410;2023-07-30T02:29:54;18.30;99.90
34542;DHT22;20784;51.332;12.410;2023-07-30T02:32:28;18.20;99.90
34542;DHT22;20784;51.332;12.410;2023-07-30T02:34:57;18.20;99.90
34542;DHT22;20784;51.332;12.410;2023-07-30T02:37:25;18.20;99.90
34542;DHT22;20784;51.332;12.410;2023-07-30T02:39:51;18.10;99.90
34542;DHT22;20784;51.332;12.410;2023-07-30T02:42:18;18.20;99.90
34542;DHT22;20784;51.332;12.410;2023-07-30T02:44:47;18.30;99.90
34542;DHT22;20784;51.332;12.410;2023-07-30T02:47:13;18.50;99.90
34542;DHT22;20784;51.332;12.410;2023-07-30T02:49:39;18.30;99.90
34542;DHT22;20784;51.332;12.410;2023-07-30T02:52:07;18.30;99.90
34542;DHT22;20784;51.332;12.410;2023-07-30T02:54:42;18.30;99.90
34542;DHT22;20784;51.332;12.410;2023-07-30T02:57:08;18.40;99.90
34542;DHT22;20784;51.332;12.410;2023-07-30T02:59:34;18.30;99.90
34542;DHT22;20784;51.332;12.410;2023-07-30T03:02:07;18.80;99.90
34542;DHT22;20784;51.332;12.410;2023-07-30T03:04:33;18.70;99.90
34542;DHT22;20784;51.332;12.410;2023-07-30T03:06:59;18.30;99.90
34542;DHT22;20784;51.332;12.410;2023-07-30T03:09:24;18.30;99.90
34542;DHT22;20784;51.332;12.410;2023-07-30T03:11:59;18.50;99.90
34542;DHT22;20784;51.332;12.410;2023-07-30T03:14:25;18.40;99.90
34542;DHT22;20784;51.332;12.410;2023-07-30T03:16:54;18.30;99.90
34542;DHT22;20784;51.332;12.410;2023-07-30T03:19:19;18.40;99.90
34542;DHT22;20784;51.332;12.410;2023-07-30T03:21:45;18.50;99.90
34542;DHT22;20784;51.332;12.410;2023-07-30T03:24:18;18.50;99.90
34542;DHT22;20784;51.332;12.410;2023-07-30T03:26:44;18.50;99.90
34542;DHT22;20784;51.332;12.410;2023-07-30T03:29:16;18.50;99.90
34542;DHT22;20784;51.332;12.410;2023-07-30T03:31:44;18.40;99.90
34542;DHT22;20784;51.332;12.410;2023-07-30T03:34:28;18.20;99.90
34542;DHT22;20784;51.332;12.410;2023-07-30T03:37:00;18.40;99.90
34542;DHT22;20784;51.332;12.410;2023-07-30T03:39:32;18.40;99.90
34542;DHT22;20784;51.332;12.410;2023-07-30T03:41:57;18.30;99.90
34542;DHT22;20784;51.332;12.410;2023-07-30T03:44:23;19.20;99.90
34542;DHT22;20784;51.332;12.410;2023-07-30T03:46:49;18.40;99.90
34542;DHT22;20784;51.332;12.410;2023-07-30T03:49:18;18.40;99.90
34542;DHT22;20784;51.332;12.410;2023-07-30T03:51:43;18.40;99.90
34542;DHT22;20784;51.332;12.410;2023-07-30T03:54:09;18.30;99.90
34542;DHT22;20784;51.332;12.410;2023-07-30T03:56:35;18.30;99.90
34542;DHT22;20784;51.332;12.410;2023-07-30T03:59:00;18.30;99.90
34542;DHT22;20784;51.332;12.410;2023-07-30T04:01:26;18.40;99.90
34542;DHT22;20784;51.332;12.410;2023-07-30T04:03:53;18.50;99.90
34542;DHT22;20784;51.332;12.410;2023-07-30T04:06:20;18.50;99.90
34542;DHT22;20784;51.332;12.410;2023-07-30T04:08:45;18.50;99.90
34542;DHT22;20784;51.332;12.410;2023-07-30T04:11:14;18.80;99.90
34542;DHT22;20784;51.332;12.410;2023-07-30T04:13:40;18.50;99.90
34542;DHT22;20784;51.332;12.410;2023-07-30T04:16:06;18.50;99.90
34542;DHT22;20784;51.332;12.410;2023-07-30T04:18:32;18.80;99.90
34542;DHT22;20784;51.332;12.410;2023-07-30T04:21:01;18.60;99.90
34542;DHT22;20784;51.332;12.410;2023-07-30T04:23:38;18.60;99.90
34542;DHT22;20784;51.332;12.410;2023-07-30T04:26:25;18.40;99.90
34542;DHT22;20784;51.332;12.410;2023-07-30T04:28:53;18.50;99.90
34542;DHT22;20784;51.332;12.410;2023-07-30T04:31:31;18.70;99.90
34542;DHT22;20784;51.332;12.410;2023-07-30T04:33:58;18.60;99.90
34542;DHT22;20784;51.332;12.410;2023-07-30T04:36:23;18.60;99.90
34542;DHT22;20784;51.332;12.410;2023-07-30T04:38:49;18.80;99.90
34542;DHT22;20784;51.332;12.410;2023-07-30T04:41:18;18.80;99.90
34542;DHT22;20784;51.332;12.410;2023-07-30T04:43:44;18.80;99.90
34542;DHT22;20784;51.332;12.410;2023-07-30T04:46:09;18.80;99.90
34542;DHT22;20784;51.332;12.410;2023-07-30T04:48:37;18.90;99.90
34542;DHT22;20784;51.332;12.410;2023-07-30T04:51:03;18.80;99.90
34542;DHT22;20784;51.332;12.410;2023-07-30T04:53:28;18.80;99.90
34542;DHT22;20784;51.332;12.410;2023-07-30T04:55:58;18.90;99.90
34542;DHT22;20784;51.332;12.410;2023-07-30T04:58:24;19.00;99.90
34542;DHT22;20784;51.332;12.410;2023-07-30T05:00:49;19.00;99.90
34542;DHT22;20784;51.332;12.410;2023-07-30T05:03:15;19.00;99.90
34542;DHT22;20784;51.332;12.410;2023-07-30T05:05:50;19.10;99.90
34542;DHT22;20784;51.332;12.410;2023-07-30T05:08:15;19.10;99.90
34542;DHT22;20784;51.332;12.410;2023-07-30T05:10:49;19.10;99.90
34542;DHT22;20784;51.332;12.410;2023-07-30T05:13:20;19.00;99.90
34542;DHT22;20784;51.332;12.410;2023-07-30T05:15:46;19.10;99.90
34542;DHT22;20784;51.332;12.410;2023-07-30T05:18:12;19.20;99.90
34542;DHT22;20784;51.332;12.410;2023-07-30T05:20:39;19.20;99.90
34542;DHT22;20784;51.332;12.410;2023-07-30T05:23:04;19.30;99.90
34542;DHT22;20784;51.332;12.410;2023-07-30T05:25:32;19.30;99.90
34542;DHT22;20784;51.332;12.410;2023-07-30T05:27:58;19.30;99.90
34542;DHT22;20784;51.332;12.410;2023-07-30T05:30:23;19.20;99.90
34542;DHT22;20784;51.332;12.410;2023-07-30T05:32:52;19.60;99.90
34542;DHT22;20784;51.332;12.410;2023-07-30T05:35:21;19.30;99.90
34542;DHT22;20784;51.332;12.410;2023-07-30T05:37:50;19.40;99.90
34542;DHT22;20784;51.332;12.410;2023-07-30T05:40:18;19.40;99.90
34542;DHT22;20784;51.332;12.410;2023-07-30T05:42:43;19.40;99.90
34542;DHT22;20784;51.332;12.410;2023-07-30T05:45:15;19.60;99.90
34542;DHT22;20784;51.332;12.410;2023-07-30T05:47:43;19.50;99.90
34542;DHT22;20784;51.332;12.410;2023-07-30T05:50:14;19.60;99.90
34542;DHT22;20784;51.332;12.410;2023-07-30T05:52:40;19.60;99.90
34542;DHT22;20784;51.332;12.410;2023-07-30T05:55:06;19.70;99.90
34542;DHT22;20784;51.332;12.410;2023-07-30T05:57:31;19.80;99.90
34542;DHT22;20784;51.332;12.410;2023-07-30T06:00:03;19.90;99.90
34542;DHT22;20784;51.332;12.410;2023-07-30T06:02:38;20.00;99.90
34542;DHT22;20784;51.332;12.410;2023-07-30T06:05:04;20.30;99.90
34542;DHT22;20784;51.332;12.410;2023-07-30T06:07:30;20.20;99.90
34542;DHT22;20784;51.332;12.410;2023-07-30T06:09:55;20.20;99.90
34542;DHT22;20784;51.332;12.410;2023-07-30T06:12:24;20.40;99.90
34542;DHT22;20784;51.332;12.410;2023-07-30T06:14:52;20.50;99.90
34542;DHT22;20784;51.332;12.410;2023-07-30T06:17:21;20.60;99.90
34542;DHT22;20784;51.332;12.410;2023-07-30T06:19:47;21.20;99.90
34542;DHT22;20784;51.332;12.410;2023-07-30T06:22:13;20.80;99.90
34542;DHT22;20784;51.332;12.410;2023-07-30T06:24:41;20.90;99.90
34542;DHT22;20784;51.332;12.410;2023-07-30T06:27:07;21.10;99.90
34542;DHT22;20784;51.332;12.410;2023-07-30T06:29:35;21.00;99.90
34542;DHT22;20784;51.332;12.410;2023-07-30T06:32:01;21.00;99.90
34542;DHT22;20784;51.332;12.410;2023-07-30T06:34:26;20.90;99.90
34542;DHT22;20784;51.332;12.410;2023-07-30T06:36:52;20.80;99.90
34542;DHT22;20784;51.332;12.410;2023-07-30T06:39:21;20.90;99.90
34542;DHT22;20784;51.332;12.410;2023-07-30T06:41:47;20.90;99.90
34542;DHT22;20784;51.332;12.410;2023-07-30T06:44:15;20.90;99.90
34542;DHT22;20784;51.332;12.410;2023-07-30T06:46:41;21.00;99.90
34542;DHT22;20784;51.332;12.410;2023-07-30T06:49:07;21.20;99.90
34542;DHT22;20784;51.332;12.410;2023-07-30T06:51:33;21.50;99.90
34542;DHT22;20784;51.332;12.410;2023-07-30T06:54:01;22.00;99.90
34542;DHT22;20784;51.332;12.410;2023-07-30T06:56:29;21.90;99.90
34542;DHT22;20784;51.332;12.410;2023-07-30T06:58:55;22.00;99.90
34542;DHT22;20784;51.332;12.410;2023-07-30T07:01:20;22.20;99.90
34542;DHT22;20784;51.332;12.410;2023-07-30T07:03:49;22.20;99.90
34542;DHT22;20784;51.332;12.410;2023-07-30T07:06:15;22.20;99.90
34542;DHT22;20784;51.332;12.410;2023-07-30T07:08:40;22.20;99.90
34542;DHT22;20784;51.332;12.410;2023-07-30T07:11:06;22.20;99.90
34542;DHT22;20784;51.332;12.410;2023-07-30T07:13:32;22.10;99.90
34542;DHT22;20784;51.332;12.410;2023-07-30T07:15:58;22.30;99.90
34542;DHT22;20784;51.332;12.410;2023-07-30T07:18:23;22.30;99.90
34542;DHT22;20784;51.332;12.410;2023-07-30T07:20:49;22.40;99.90
34542;DHT22;20784;51.332;12.410;2023-07-30T07:23:17;22.50;99.90
34542;DHT22;20784;51.332;12.410;2023-07-30T07:25:46;22.40;99.90
34542;DHT22;20784;51.332;12.410;2023-07-30T07:28:12;22.40;99.90
34542;DHT22;20784;51.332;12.410;2023-07-30T07:30:37;22.50;99.90
34542;DHT22;20784;51.332;12.410;2023-07-30T07:33:03;22.40;99.90
34542;DHT22;20784;51.332;12.410;2023-07-30T07:35:33;22.40;99.90
34542;DHT22;20784;51.332;12.410;2023-07-30T07:37:59;22.40;99.90
34542;DHT22;20784;51.332;12.410;2023-07-30T07:40:24;22.50;99.90
34542;DHT22;20784;51.332;12.410;2023-07-30T07:42:50;22.50;99.90
34542;DHT22;20784;51.332;12.410;2023-07-30T07:45:18;22.50;99.90
34542;DHT22;20784;51.332;12.410;2023-07-30T07:47:46;22.20;99.90
34542;DHT22;20784;51.332;12.410;2023-07-30T07:50:15;22.50;99.90
34542;DHT22;20784;51.332;12.410;2023-07-30T07:52:41;22.40;99.90
34542;DHT22;20784;51.332;12.410;2023-07-30T07:55:07;22.70;99.90
34542;DHT22;20784;51.332;12.410;2023-07-30T07:57:33;22.60;99.90
34542;DHT22;20784;51.332;12.410;2023-07-30T07:59:59;22.60;99.90
34542;DHT22;20784;51.332;12.410;2023-07-30T08:02:25;22.80;99.90
34542;DHT22;20784;51.332;12.410;2023-07-30T08:04:53;22.80;99.90
34542;DHT22;20784;51.332;12.410;2023-07-30T08:07:19;22.80;99.90
34542;DHT22;20784;51.332;12.410;2023-07-30T08:09:47;22.80;99.90
34542;DHT22;20784;51.332;12.410;2023-07-30T08:12:17;23.00;99.90
34542;DHT22;20784;51.332;12.410;2023-07-30T08:14:42;23.20;99.90
34542;DHT22;20784;51.332;12.410;2023-07-30T08:17:11;23.40;99.90
34542;DHT22;20784;51.332;12.410;2023-07-30T08:19:42;23.20;99.90
34542;DHT22;20784;51.332;12.410;2023-07-30T08:22:07;23.10;99.90
34542;DHT22;20784;51.332;12.410;2023-07-30T08:24:33;23.10;99.90
34542;DHT22;20784;51.332;12.410;2023-07-30T08:26:59;23.20;99.90
34542;DHT22;20784;51.332;12.410;2023-07-30T08:29:24;23.20;99.90
34542;DHT22;20784;51.332;12.410;2023-07-30T08:31:50;23.20;99.90
34542;DHT22;20784;51.332;12.410;2023-07-30T08:34:15;23.10;99.90
34542;DHT22;20784;51.332;12.410;2023-07-30T08:36:43;23.20;99.90
34542;DHT22;20784;51.332;12.410;2023-07-30T08:39:15;23.40;99.90
34542;DHT22;20784;51.332;12.410;2023-07-30T08:41:41;23.40;99.90
34542;DHT22;20784;51.332;12.410;2023-07-30T08:44:06;23.40;99.90
34542;DHT22;20784;51.332;12.410;2023-07-30T08:46:32;23.70;99.90
34542;DHT22;20784;51.332;12.410;2023-07-30T08:48:58;23.80;99.90
34542;DHT22;20784;51.332;12.410;2023-07-30T08:51:25;23.90;99.90
34542;DHT22;20784;51.332;12.410;2023-07-30T08:53:52;24.20;99.90
34542;DHT22;20784;51.332;12.410;2023-07-30T08:56:18;24.30;99.90
34542;DHT22;20784;51.332;12.410;2023-07-30T08:58:44;24.60;99.90
34542;DHT22;20784;51.332;12.410;2023-07-30T09:01:12;25.00;99.90
34542;DHT22;20784;51.332;12.410;2023-07-30T09:03:40;25.50;99.90
34542;DHT22;20784;51.332;12.410;2023-07-30T09:06:07;25.20;99.90
34542;DHT22;20784;51.332;12.410;2023-07-30T09:08:32;25.50;99.90
34542;DHT22;20784;51.332;12.410;2023-07-30T09:11:18;25.40;99.90
34542;DHT22;20784;51.332;12.410;2023-07-30T09:14:00;25.50;99.90
34542;DHT22;20784;51.332;12.410;2023-07-30T09:16:26;25.50;99.90
34542;DHT22;20784;51.332;12.410;2023-07-30T09:18:52;25.50;99.90
34542;DHT22;20784;51.332;12.410;2023-07-30T09:21:31;25.60;99.90
34542;DHT22;20784;51.332;12.410;2023-07-30T09:23:57;25.60;99.90
34542;DHT22;20784;51.332;12.410;2023-07-30T09:26:46;25.90;99.90
34542;DHT22;20784;51.332;12.410;2023-07-30T09:29:22;26.30;99.90
34542;DHT22;20784;51.332;12.410;2023-07-30T09:31:59;26.20;99.90
34542;DHT22;20784;51.332;12.410;2023-07-30T09:34:28;26.40;99.90
34542;DHT22;20784;51.332;12.410;2023-07-30T09:36:55;26.20;99.90
34542;DHT22;20784;51.332;12.410;2023-07-30T09:39:25;25.60;99.90
34542;DHT22;20784;51.332;12.410;2023-07-30T09:42:00;26.40;99.90
34542;DHT22;20784;51.332;12.410;2023-07-30T09:44:32;26.30;99.90
34542;DHT22;20784;51.332;12.410;2023-07-30T09:47:01;26.50;99.90
34542;DHT22;20784;51.332;12.410;2023-07-30T09:49:36;26.70;99.90
34542;DHT22;20784;51.332;12.410;2023-07-30T09:52:04;27.00;99.90
34542;DHT22;20784;51.332;12.410;2023-07-30T09:54:31;27.40;99.90
34542;DHT22;20784;51.332;12.410;2023-07-30T09:56:56;27.60;99.90
34542;DHT22;20784;51.332;12.410;2023-07-30T09:59:23;27.60;99.90
34542;DHT22;20784;51.332;12.410;2023-07-30T10:01:49;27.30;99.90
34542;DHT22;20784;51.332;12.410;2023-07-30T10:04:19;27.00;99.90
34542;DHT22;20784;51.332;12.410;2023-07-30T10:06:56;27.10;99.90
34542;DHT22;20784;51.332;12.410;2023-07-30T10:09:30;27.20;99.90
34542;DHT22;20784;51.332;12.410;2023-07-30T10:11:59;27.40;99.90
34542;DHT22;20784;51.332;12.410;2023-07-30T10:14:29;27.80;99.90
34542;DHT22;20784;51.332;12.410;2023-07-30T10:16:59;28.00;99.90
34542;DHT22;20784;51.332;12.410;2023-07-30T10:19:29;28.20;99.90
34542;DHT22;20784;51.332;12.410;2023-07-30T10:24:39;28.60;99.90
34542;DHT22;20784;51.332;12.410;2023-07-30T10:27:10;28.60;99.90
34542;DHT22;20784;51.332;12.410;2023-07-30T10:29:36;28.30;99.90
34542;DHT22;20784;51.332;12.410;2023-07-30T10:32:09;28.00;99.90
34542;DHT22;20784;51.332;12.410;2023-07-30T10:34:45;28.20;99.90
34542;DHT22;20784;51.332;12.410;2023-07-30T10:37:17;28.50;99.90
34542;DHT22;20784;51.332;12.410;2023-07-30T10:39:50;28.40;99.90
34542;DHT22;20784;51.332;12.410;2023-07-30T10:42:15;28.40;99.90
34542;DHT22;20784;51.332;12.410;2023-07-30T10:44:44;28.00;99.90
34542;DHT22;20784;51.332;12.410;2023-07-30T10:47:10;28.00;99.90
34542;DHT22;20784;51.332;12.410;2023-07-30T10:49:37;27.60;99.90
34542;DHT22;20784;51.332;12.410;2023-07-30T10:52:03;27.90;99.90
34542;DHT22;20784;51.332;12.410;2023-07-30T10:54:36;27.90;99.90
34542;DHT22;20784;51.332;12.410;2023-07-30T10:57:03;28.20;99.90
34542;DHT22;20784;51.332;12.410;2023-07-30T10:59:38;28.10;99.90
34542;DHT22;20784;51.332;12.410;2023-07-30T11:02:04;27.70;99.90
34542;DHT22;20784;51.332;12.410;2023-07-30T11:04:34;27.50;99.90
34542;DHT22;20784;51.332;12.410;2023-07-30T11:06:59;27.40;99.90
34542;DHT22;20784;51.332;12.410;2023-07-30T11:09:28;27.80;99.90
34542;DHT22;20784;51.332;12.410;2023-07-30T11:11:55;27.70;99.90
34542;DHT22;20784;51.332;12.410;2023-07-30T11:14:24;28.00;99.90
34542;DHT22;20784;51.332;12.410;2023-07-30T11:16:59;28.10;99.90
34542;DHT22;20784;51.332;12.410;2023-07-30T11:19:28;27.80;99.90
34542;DHT22;20784;51.332;12.410;2023-07-30T11:21:56;28.20;99.90
34542;DHT22;20784;51.332;12.410;2023-07-30T11:24:35;28.30;99.90
34542;DHT22;20784;51.332;12.410;2023-07-30T11:27:07;28.00;99.90
34542;DHT22;20784;51.332;12.410;2023-07-30T11:29:32;28.50;99.90
34542;DHT22;20784;51.332;12.410;2023-07-30T11:31:59;28.60;99.90
34542;DHT22;20784;51.332;12.410;2023-07-30T11:34:27;28.90;99.90
34542;DHT22;20784;51.332;12.410;2023-07-30T11:36:54;29.10;99.90
34542;DHT22;20784;51.332;12.410;2023-07-30T11:39:20;28.80;99.90
34542;DHT22;20784;51.332;12.410;2023-07-30T11:41:47;28.20;99.90
34542;DHT22;20784;51.332;12.410;2023-07-30T11:46:57;28.70;99.90
34542;DHT22;20784;51.332;12.410;2023-07-30T11:49:22;28.80;99.90
34542;DHT22;20784;51.332;12.410;2023-07-30T11:51:50;29.20;99.90
34542;DHT22;20784;51.332;12.410;2023-07-30T11:54:21;29.40;99.90
34542;DHT22;20784;51.332;12.410;2023-07-30T11:56:54;29.30;99.90
34542;DHT22;20784;51.332;12.410;2023-07-30T11:59:23;29.30;99.90
34542;DHT22;20784;51.332;12.410;2023-07-30T12:01:49;29.40;99.90
34542;DHT22;20784;51.332;12.410;2023-07-30T12:04:15;29.90;99.90
34542;DHT22;20784;51.332;12.410;2023-07-30T12:06:48;30.00;99.90
34542;DHT22;20784;51.332;12.410;2023-07-30T12:09:19;29.80;99.90
34542;DHT22;20784;51.332;12.410;2023-07-30T12:11:51;29.70;99.90
34542;DHT22;20784;51.332;12.410;2023-07-30T12:14:17;29.50;99.90
34542;DHT22;20784;51.332;12.410;2023-07-30T12:16:43;29.00;99.90
34542;DHT22;20784;51.332;12.410;2023-07-30T12:19:09;29.10;99.90
34542;DHT22;20784;51.332;12.410;2023-07-30T12:21:35;29.40;99.90
34542;DHT22;20784;51.332;12.410;2023-07-30T12:24:01;29.10;99.90
34542;DHT22;20784;51.332;12.410;2023-07-30T12:26:27;29.00;99.90
34542;DHT22;20784;51.332;12.410;2023-07-30T12:28:52;28.80;99.90
34542;DHT22;20784;51.332;12.410;2023-07-30T12:31:18;28.90;99.90
34542;DHT22;20784;51.332;12.410;2023-07-30T12:33:43;29.00;99.90
34542;DHT22;20784;51.332;12.410;2023-07-30T12:36:09;28.60;99.90
34542;DHT22;20784;51.332;12.410;2023-07-30T12:38:35;28.60;99.90
34542;DHT22;20784;51.332;12.410;2023-07-30T12:41:00;28.10;99.90
34542;DHT22;20784;51.332;12.410;2023-07-30T12:43:26;27.60;99.90
34542;DHT22;20784;51.332;12.410;2023-07-30T12:45:54;27.50;99.90
34542;DHT22;20784;51.332;12.410;2023-07-30T12:48:20;27.70;99.90
34542;DHT22;20784;51.332;12.410;2023-07-30T12:50:45;27.50;99.90
34542;DHT22;20784;51.332;12.410;2023-07-30T12:53:11;27.40;99.90
34542;DHT22;20784;51.332;12.410;2023-07-30T12:55:36;27.30;99.90
34542;DHT22;20784;51.332;12.410;2023-07-30T12:58:03;27.00;99.90
34542;DHT22;20784;51.332;12.410;2023-07-30T13:00:29;27.00;99.90
34542;DHT22;20784;51.332;12.410;2023-07-30T13:02:55;26.40;99.90
34542;DHT22;20784;51.332;12.410;2023-07-30T13:05:23;26.50;99.90
34542;DHT22;20784;51.332;12.410;2023-07-30T13:07:49;25.70;99.90
34542;DHT22;20784;51.332;12.410;2023-07-30T13:10:15;24.80;99.90
34542;DHT22;20784;51.332;12.410;2023-07-30T13:12:40;24.30;99.90
34542;DHT22;20784;51.332;12.410;2023-07-30T13:15:06;23.80;99.90
34542;DHT22;20784;51.332;12.410;2023-07-30T13:17:32;23.40;99.90
34542;DHT22;20784;51.332;12.410;2023-07-30T13:19:58;23.20;99.90
34542;DHT22;20784;51.332;12.410;2023-07-30T13:22:23;23.20;99.90
34542;DHT22;20784;51.332;12.410;2023-07-30T13:24:49;23.20;99.90
34542;DHT22;20784;51.332;12.410;2023-07-30T13:27:14;23.40;99.90
34542;DHT22;20784;51.332;12.410;2023-07-30T13:29:43;23.50;99.90
34542;DHT22;20784;51.332;12.410;2023-07-30T13:32:08;23.50;99.90
34542;DHT22;20784;51.332;12.410;2023-07-30T13:34:34;23.90;99.90
34542;DHT22;20784;51.332;12.410;2023-07-30T13:37:00;23.60;99.90
34542;DHT22;20784;51.332;12.410;2023-07-30T13:39:25;23.50;99.90
34542;DHT22;20784;51.332;12.410;2023-07-30T13:41:51;23.60;99.90
34542;DHT22;20784;51.332;12.410;2023-07-30T13:44:19;23.50;99.90
34542;DHT22;20784;51.332;12.410;2023-07-30T13:46:45;23.40;99.90
34542;DHT22;20784;51.332;12.410;2023-07-30T13:49:11;23.50;99.90
34542;DHT22;20784;51.332;12.410;2023-07-30T13:51:36;23.40;99.90
34542;DHT22;20784;51.332;12.410;2023-07-30T13:54:02;23.30;99.90
34542;DHT22;20784;51.332;12.410;2023-07-30T13:56:31;23.10;99.90
34542;DHT22;20784;51.332;12.410;2023-07-30T13:58:57;22.70;99.90
34542;DHT22;20784;51.332;12.410;2023-07-30T14:01:22;22.60;99.90
34542;DHT22;20784;51.332;12.410;2023-07-30T14:03:51;22.90;99.90
34542;DHT22;20784;51.332;12.410;2023-07-30T14:06:17;22.50;99.90
34542;DHT22;20784;51.332;12.410;2023-07-30T14:08:43;22.50;99.90
34542;DHT22;20784;51.332;12.410;2023-07-30T14:11:09;22.50;99.90
34542;DHT22;20784;51.332;12.410;2023-07-30T14:13:34;22.70;99.90
34542;DHT22;20784;51.332;12.410;2023-07-30T14:16:06;22.10;99.90
34542;DHT22;20784;51.332;12.410;2023-07-30T14:18:32;22.60;99.90
34542;DHT22;20784;51.332;12.410;2023-07-30T14:20:58;22.60;99.90
34542;DHT22;20784;51.332;12.410;2023-07-30T14:23:23;22.80;99.90
34542;DHT22;20784;51.332;12.410;2023-07-30T14:25:49;23.20;99.90
34542;DHT22;20784;51.332;12.410;2023-07-30T14:28:18;23.10;99.90
34542;DHT22;20784;51.332;12.410;2023-07-30T14:30:43;23.00;99.90
34542;DHT22;20784;51.332;12.410;2023-07-30T14:33:10;22.90;99.90
34542;DHT22;20784;51.332;12.410;2023-07-30T14:35:36;23.30;99.90
34542;DHT22;20784;51.332;12.410;2023-07-30T14:38:04;22.70;99.90
34542;DHT22;20784;51.332;12.410;2023-07-30T14:40:30;22.90;99.90
34542;DHT22;20784;51.332;12.410;2023-07-30T14:42:59;22.50;99.90
34542;DHT22;20784;51.332;12.410;2023-07-30T14:45:25;22.30;99.90
34542;DHT22;20784;51.332;12.410;2023-07-30T14:47:51;22.20;99.90
34542;DHT22;20784;51.332;12.410;2023-07-30T14:50:16;22.20;99.90
34542;DHT22;20784;51.332;12.410;2023-07-30T14:52:42;21.70;99.90
34542;DHT22;20784;51.332;12.410;2023-07-30T14:55:07;22.00;99.90
34542;DHT22;20784;51.332;12.410;2023-07-30T14:57:36;21.90;99.90
34542;DHT22;20784;51.332;12.410;2023-07-30T15:00:02;21.90;99.90
34542;DHT22;20784;51.332;12.410;2023-07-30T15:02:29;21.80;99.90
34542;DHT22;20784;51.332;12.410;2023-07-30T15:04:54;21.70;99.90
34542;DHT22;20784;51.332;12.410;2023-07-30T15:07:20;21.30;99.90
34542;DHT22;20784;51.332;12.410;2023-07-30T15:09:53;22.10;99.90
34542;DHT22;20784;51.332;12.410;2023-07-30T15:12:20;21.30;99.90
34542;DHT22;20784;51.332;12.410;2023-07-30T15:14:45;21.30;99.90
34542;DHT22;20784;51.332;12.410;2023-07-30T15:17:11;21.20;99.90
34542;DHT22;20784;51.332;12.410;2023-07-30T15:19:37;21.20;99.90
34542;DHT22;20784;51.332;12.410;2023-07-30T15:22:06;21.10;99.90
34542;DHT22;20784;51.332;12.410;2023-07-30T15:24:31;21.00;99.90